Time;durP1;ratioP1;P1;durP2;ratioP2;P2;SDS_P1;SDS_P2;PMS_P1;PMS_P2;Temp;Humidity;BMP_temperature;BMP_pressure;BME280_temperature;BME280_humidity;BME280_pressure;Samples;Min_cycle;Max_cycle;Signal;HPM_P1;HPM_P2
2023/11/07 00:01:30;;;;;;;7.28;6.13;;;8.60;99.90;;;;;;4943987;28;20036;-56
2023/11/07 00:03:56;;;;;;;10.10;5.80;;;8.60;99.90;;;;;;4940225;28;21401;-53
2023/11/07 00:06:22;;;;;;;8.52;5.93;;;8.70;99.90;;;;;;4983394;28;20026;-54
2023/11/07 00:08:47;;;;;;;9.70;5.93;;;8.70;99.90;;;;;;4939911;28;20402;-56
2023/11/07 00:11:13;;;;;;;7.90;5.70;;;8.70;99.90;;;;;;4932748;28;20113;-53
2023/11/07 00:13:40;;;;;;;8.05;5.57;;;8.60;99.90;;;;;;4910078;28;20030;-53
2023/11/07 00:16:07;;;;;;;8.90;5.43;;;8.60;99.90;;;;;;4931393;28;20018;-55
2023/11/07 00:18:34;;;;;;;9.70;6.22;;;8.60;99.90;;;;;;4953245;28;20030;-59
2023/11/07 00:20:59;;;;;;;13.52;6.32;;;8.60;99.90;;;;;;4981467;28;20049;-54
2023/11/07 00:23:25;;;;;;;9.32;6.53;;;8.70;99.90;;;;;;4924158;28;20084;-52
2023/11/07 00:25:53;;;;;;;11.80;6.28;;;8.70;99.90;;;;;;4934907;28;20036;-51
2023/11/07 00:28:22;;;;;;;7.32;5.20;;;8.70;99.90;;;;;;4966297;28;20101;-52
2023/11/07 00:30:48;;;;;;;12.85;6.25;;;8.70;99.90;;;;;;4979596;28;20041;-55
2023/11/07 00:33:13;;;;;;;8.82;6.47;;;8.70;99.90;;;;;;4982449;28;20033;-56
2023/11/07 00:35:41;;;;;;;9.48;6.05;;;8.70;99.90;;;;;;4972060;28;20072;-56
2023/11/07 00:38:06;;;;;;;9.07;6.18;;;8.70;99.90;;;;;;4967436;28;20109;-56
2023/11/07 00:40:32;;;;;;;7.72;4.95;;;8.70;99.90;;;;;;4976241;28;20118;-55
2023/11/07 00:42:57;;;;;;;8.27;6.10;;;8.70;99.90;;;;;;4985843;28;21739;-51
2023/11/07 00:45:23;;;;;;;14.57;6.32;;;8.70;99.90;;;;;;4990391;28;20506;-53
2023/11/07 00:47:50;;;;;;;9.35;5.40;;;8.70;99.90;;;;;;4972697;28;20028;-54
2023/11/07 00:50:16;;;;;;;14.05;7.07;;;8.70;99.90;;;;;;4966016;28;20041;-52
2023/11/07 00:52:42;;;;;;;8.77;6.38;;;8.70;99.90;;;;;;4967110;28;20034;-55
2023/11/07 00:55:08;;;;;;;8.63;5.80;;;8.70;99.90;;;;;;4979459;28;20026;-52
2023/11/07 00:57:34;;;;;;;9.23;6.18;;;8.70;99.90;;;;;;4986202;28;20084;-54
2023/11/07 00:59:59;;;;;;;9.98;6.20;;;8.60;99.90;;;;;;4962780;28;20025;-55
2023/11/07 01:02:25;;;;;;;6.97;5.85;;;8.60;99.90;;;;;;4962407;28;20037;-51
2023/11/07 01:04:53;;;;;;;8.80;5.78;;;8.60;99.90;;;;;;4959371;28;20504;-52
2023/11/07 01:07:19;;;;;;;8.77;5.57;;;8.60;99.90;;;;;;4976562;28;20026;-52
2023/11/07 01:09:44;;;;;;;9.45;5.78;;;8.60;99.90;;;;;;4959607;28;20098;-51
2023/11/07 01:12:10;;;;;;;9.60;6.13;;;8.60;99.90;;;;;;4982673;28;20037;-52
2023/11/07 01:14:36;;;;;;;5.60;4.97;;;8.60;99.90;;;;;;4954181;28;20133;-53
2023/11/07 01:17:02;;;;;;;7.68;5.30;;;8.60;99.90;;;;;;4982089;28;20038;-52
2023/11/07 01:19:28;;;;;;;9.25;5.32;;;8.60;99.90;;;;;;4946348;28;20052;-55
2023/11/07 01:21:54;;;;;;;11.00;5.05;;;8.60;99.90;;;;;;4970825;28;20502;-55
2023/11/07 01:24:19;;;;;;;8.48;5.10;;;8.60;99.90;;;;;;4980993;28;20040;-53
2023/11/07 01:26:45;;;;;;;6.95;5.15;;;8.60;99.90;;;;;;4963917;28;20029;-55
2023/11/07 01:29:12;;;;;;;8.60;5.70;;;8.50;99.90;;;;;;4962964;28;20129;-60
2023/11/07 01:31:38;;;;;;;7.97;5.20;;;8.50;99.90;;;;;;4940943;28;20080;-55
2023/11/07 01:34:04;;;;;;;12.10;5.55;;;8.50;99.90;;;;;;4969412;28;20041;-53
2023/11/07 01:36:30;;;;;;;6.15;5.20;;;8.50;99.90;;;;;;4970076;28;20042;-53
2023/11/07 01:38:56;;;;;;;9.23;5.65;;;8.50;99.90;;;;;;4934855;28;20034;-54
2023/11/07 01:41:21;;;;;;;9.95;4.65;;;8.40;99.90;;;;;;4966557;28;20049;-56
2023/11/07 01:43:47;;;;;;;9.88;5.85;;;8.40;99.90;;;;;;4943587;28;22188;-52
2023/11/07 01:46:12;;;;;;;7.50;5.60;;;8.40;99.90;;;;;;4952329;28;20145;-53
2023/11/07 01:48:38;;;;;;;6.80;4.88;;;8.30;99.90;;;;;;4962581;28;20164;-59
2023/11/07 01:51:05;;;;;;;10.02;5.20;;;8.30;99.90;;;;;;4932197;28;20123;-54
2023/11/07 01:53:31;;;;;;;10.55;5.75;;;8.30;99.90;;;;;;4951047;28;22657;-55
2023/11/07 01:55:57;;;;;;;11.52;6.47;;;8.30;99.90;;;;;;4924339;28;20525;-55
2023/11/07 01:58:24;;;;;;;10.80;5.78;;;8.30;99.90;;;;;;4957682;28;20036;-52
2023/11/07 02:00:53;;;;;;;9.73;5.15;;;8.30;99.90;;;;;;4908899;28;20059;-52
2023/11/07 02:03:20;;;;;;;8.50;4.97;;;8.40;99.90;;;;;;4952771;28;20030;-54
2023/11/07 02:05:45;;;;;;;8.70;5.43;;;8.40;99.90;;;;;;4951244;28;20022;-56
2023/11/07 02:08:11;;;;;;;10.18;5.80;;;8.40;99.90;;;;;;4904415;28;20428;-59
2023/11/07 02:10:40;;;;;;;10.60;6.00;;;8.40;99.90;;;;;;4926699;28;20548;-54
2023/11/07 02:13:05;;;;;;;10.68;5.90;;;8.40;99.90;;;;;;4925658;28;20177;-52
2023/11/07 02:15:31;;;;;;;10.77;6.60;;;8.40;99.90;;;;;;4962164;28;20475;-54
2023/11/07 02:17:57;;;;;;;11.00;6.03;;;8.40;99.90;;;;;;4915478;28;20045;-55
2023/11/07 02:20:23;;;;;;;10.15;6.13;;;8.40;99.90;;;;;;4934031;28;20050;-53
2023/11/07 02:22:55;;;;;;;7.30;5.47;;;8.50;99.90;;;;;;4899774;28;21911;-55
2023/11/07 02:25:20;;;;;;;10.15;6.43;;;8.40;99.90;;;;;;4954246;28;20060;-52
2023/11/07 02:27:47;;;;;;;9.98;5.50;;;8.50;99.90;;;;;;4914669;28;20054;-59
2023/11/07 02:30:13;;;;;;;8.55;5.60;;;8.50;99.90;;;;;;4957401;28;20041;-56
2023/11/07 02:32:42;;;;;;;10.98;6.68;;;8.40;99.90;;;;;;4935088;28;20409;-52
2023/11/07 02:35:11;;;;;;;7.03;5.68;;;8.50;99.90;;;;;;4928343;28;20045;-53
2023/11/07 02:37:37;;;;;;;17.60;5.75;;;8.40;99.90;;;;;;4908190;22;20047;-63
2023/11/07 02:40:03;;;;;;;6.53;5.72;;;8.40;99.90;;;;;;4903115;28;21151;-62
2023/11/07 02:42:29;;;;;;;7.85;5.68;;;8.40;99.90;;;;;;4945092;28;20634;-60
2023/11/07 02:44:58;;;;;;;8.15;5.35;;;8.40;99.90;;;;;;4878694;28;20085;-60
2023/11/07 02:47:25;;;;;;;7.65;5.50;;;8.40;99.90;;;;;;4906262;28;20027;-59
2023/11/07 02:49:51;;;;;;;12.35;6.25;;;8.40;99.90;;;;;;4839113;28;22150;-60
2023/11/07 02:52:17;;;;;;;8.18;6.03;;;8.40;99.90;;;;;;4841762;28;20054;-61
2023/11/07 02:54:42;;;;;;;8.75;5.60;;;8.40;99.90;;;;;;4844643;28;20031;-63
2023/11/07 02:57:08;;;;;;;7.03;5.55;;;8.40;99.90;;;;;;4838512;28;20046;-60
2023/11/07 02:59:33;;;;;;;10.75;5.60;;;8.50;99.90;;;;;;4844016;28;20023;-61
2023/11/07 03:02:00;;;;;;;12.55;6.15;;;8.40;99.90;;;;;;4884798;28;20023;-58
2023/11/07 03:04:26;;;;;;;8.02;5.60;;;8.40;99.90;;;;;;4869204;28;20511;-63
2023/11/07 03:06:53;;;;;;;10.15;6.03;;;8.50;99.90;;;;;;4814635;28;20031;-59
2023/11/07 03:09:18;;;;;;;9.38;5.53;;;8.40;99.90;;;;;;4890985;28;20117;-60
2023/11/07 03:11:44;;;;;;;10.88;6.15;;;8.40;99.90;;;;;;4890567;28;20034;-59
2023/11/07 03:14:09;;;;;;;8.57;5.40;;;8.40;99.90;;;;;;4887307;28;20114;-59
2023/11/07 03:16:36;;;;;;;6.32;4.97;;;8.40;99.90;;;;;;4881282;28;20028;-61
2023/11/07 03:19:07;;;;;;;6.45;4.65;;;8.40;99.90;;;;;;4883191;28;21656;-61
2023/11/07 03:21:32;;;;;;;8.43;4.55;;;8.40;99.90;;;;;;4930864;28;20391;-59
2023/11/07 03:23:58;;;;;;;10.45;5.15;;;8.40;99.90;;;;;;4893318;28;20035;-58
2023/11/07 03:26:24;;;;;;;8.00;5.15;;;8.40;99.90;;;;;;4884904;28;20100;-60
2023/11/07 03:28:50;;;;;;;7.13;4.88;;;8.40;99.90;;;;;;4950858;28;20027;-60
2023/11/07 03:31:15;;;;;;;6.57;4.72;;;8.40;99.90;;;;;;4940550;28;20042;-58
2023/11/07 03:33:41;;;;;;;9.52;5.60;;;8.40;99.90;;;;;;4877236;28;20082;-60
2023/11/07 03:36:08;;;;;;;8.02;4.80;;;8.40;99.90;;;;;;4879494;28;20038;-58
2023/11/07 03:38:34;;;;;;;7.30;4.60;;;8.40;99.90;;;;;;4867124;28;20118;-61
2023/11/07 03:41:02;;;;;;;13.63;4.85;;;8.50;99.90;;;;;;4855878;28;22296;-59
2023/11/07 03:43:28;;;;;;;8.48;4.88;;;8.50;99.90;;;;;;4891210;28;20119;-63
2023/11/07 03:45:53;;;;;;;9.50;5.18;;;8.50;99.90;;;;;;4875409;28;20023;-59
2023/11/07 03:48:19;;;;;;;10.63;5.25;;;8.50;99.90;;;;;;4867152;28;20947;-57
2023/11/07 03:50:45;;;;;;;8.55;5.10;;;8.50;99.90;;;;;;4931512;28;20027;-58
2023/11/07 03:53:10;;;;;;;9.02;4.80;;;8.50;99.90;;;;;;4927846;28;20046;-64
2023/11/07 03:55:36;;;;;;;7.68;4.68;;;8.50;99.90;;;;;;4915051;28;20036;-60
2023/11/07 03:58:02;;;;;;;7.40;5.15;;;8.60;99.90;;;;;;4917518;28;20032;-60
2023/11/07 04:00:28;;;;;;;8.25;4.68;;;8.60;99.90;;;;;;4873246;28;20023;-56
2023/11/07 04:02:53;;;;;;;7.15;4.75;;;8.50;99.90;;;;;;4913145;28;20441;-57
2023/11/07 04:05:19;;;;;;;10.73;4.75;;;8.50;99.90;;;;;;4893263;28;20560;-60
2023/11/07 04:07:46;;;;;;;9.85;4.25;;;8.60;99.90;;;;;;4915008;28;20090;-65
2023/11/07 04:10:13;;;;;;;5.65;4.75;;;8.60;99.90;;;;;;4912691;28;20016;-60
2023/11/07 04:12:40;;;;;;;8.10;5.35;;;8.60;99.90;;;;;;4914445;28;20034;-61
2023/11/07 04:15:09;;;;;;;11.32;5.00;;;8.60;99.90;;;;;;4898240;28;20023;-60
2023/11/07 04:17:35;;;;;;;7.60;4.53;;;8.60;99.90;;;;;;4896620;28;20194;-59
2023/11/07 04:20:01;;;;;;;7.70;5.18;;;8.60;99.90;;;;;;4898735;28;20808;-59
2023/11/07 04:22:28;;;;;;;6.15;4.78;;;8.60;99.90;;;;;;4922779;28;20027;-58
2023/11/07 04:24:53;;;;;;;10.75;5.10;;;8.60;99.90;;;;;;4938435;28;20054;-60
2023/11/07 04:27:19;;;;;;;12.70;4.45;;;8.60;99.90;;;;;;4929725;28;20055;-60
2023/11/07 04:29:44;;;;;;;6.05;5.20;;;8.60;99.90;;;;;;4929048;28;21110;-58
2023/11/07 04:32:11;;;;;;;8.23;5.00;;;8.60;99.90;;;;;;4940447;28;20055;-59
2023/11/07 04:34:37;;;;;;;11.60;4.93;;;8.70;99.90;;;;;;4919560;28;20701;-61
2023/11/07 04:37:03;;;;;;;9.25;5.25;;;8.60;99.90;;;;;;4907645;28;20053;-57
2023/11/07 04:39:28;;;;;;;9.48;5.05;;;8.70;99.90;;;;;;4933762;28;20042;-60
2023/11/07 04:41:54;;;;;;;8.88;4.75;;;8.70;99.90;;;;;;4924043;28;20030;-59
2023/11/07 04:44:20;;;;;;;7.78;4.43;;;8.70;99.90;;;;;;4934860;28;20063;-55
2023/11/07 04:46:49;;;;;;;9.15;5.28;;;8.70;99.90;;;;;;4895870;28;20020;-59
2023/11/07 04:49:14;;;;;;;8.43;4.40;;;8.70;99.90;;;;;;4888351;28;20035;-60
2023/11/07 04:51:43;;;;;;;11.57;5.30;;;8.70;99.90;;;;;;4912981;28;20392;-57
2023/11/07 04:54:09;;;;;;;10.90;6.85;;;8.70;99.90;;;;;;4913420;28;20114;-55
2023/11/07 04:56:34;;;;;;;6.50;4.95;;;8.70;99.90;;;;;;4920219;28;20118;-58
2023/11/07 04:59:00;;;;;;;7.18;3.85;;;8.70;99.90;;;;;;4939935;28;20528;-57
2023/11/07 05:01:26;;;;;;;8.85;5.05;;;8.70;99.90;;;;;;4899040;28;20043;-58
2023/11/07 05:03:53;;;;;;;11.52;4.70;;;8.70;99.90;;;;;;4915016;28;20035;-60
2023/11/07 05:06:21;;;;;;;10.23;4.95;;;8.70;99.90;;;;;;4912685;28;20436;-59
2023/11/07 05:08:47;;;;;;;6.78;4.55;;;8.70;99.90;;;;;;4915538;28;21597;-58
2023/11/07 05:11:12;;;;;;;9.65;4.53;;;8.70;99.90;;;;;;4907369;28;20480;-58
2023/11/07 05:13:38;;;;;;;6.68;4.85;;;8.70;99.90;;;;;;4916524;28;20031;-58
2023/11/07 05:16:04;;;;;;;7.45;4.75;;;8.80;99.90;;;;;;4914659;28;20530;-60
2023/11/07 05:18:30;;;;;;;7.93;5.50;;;8.70;99.90;;;;;;4921204;28;20126;-60
2023/11/07 05:20:56;;;;;;;9.05;4.55;;;8.70;99.90;;;;;;4910801;28;20125;-58
2023/11/07 05:23:22;;;;;;;9.00;5.25;;;8.70;99.90;;;;;;4932108;28;20584;-59
2023/11/07 05:25:48;;;;;;;7.50;5.18;;;8.80;99.90;;;;;;4938671;28;20028;-56
2023/11/07 05:28:14;;;;;;;8.43;5.07;;;8.80;99.90;;;;;;4900647;28;20178;-59
2023/11/07 05:30:39;;;;;;;15.63;5.88;;;8.70;99.90;;;;;;4903387;28;20023;-59
2023/11/07 05:33:05;;;;;;;7.20;4.72;;;8.80;99.90;;;;;;4913942;28;20024;-60
2023/11/07 05:35:31;;;;;;;6.38;5.03;;;8.80;99.90;;;;;;4871854;28;20036;-63
2023/11/07 05:37:57;;;;;;;7.45;4.95;;;8.80;99.90;;;;;;4885645;28;20042;-60
2023/11/07 05:40:26;;;;;;;6.97;5.43;;;8.80;99.90;;;;;;4929235;28;20027;-60
2023/11/07 05:42:52;;;;;;;7.43;5.07;;;8.80;99.90;;;;;;4879479;28;20054;-59
2023/11/07 05:45:18;;;;;;;9.20;5.60;;;8.80;99.90;;;;;;4832351;28;20532;-59
2023/11/07 05:47:44;;;;;;;10.23;5.72;;;8.80;99.90;;;;;;4852999;28;20074;-59
2023/11/07 05:50:10;;;;;;;9.30;6.35;;;8.80;99.90;;;;;;4858781;28;20030;-59
2023/11/07 05:52:36;;;;;;;11.95;5.60;;;8.80;99.90;;;;;;4927378;28;20135;-59
2023/11/07 05:55:03;;;;;;;10.40;4.97;;;8.80;99.90;;;;;;4826081;28;20070;-56
2023/11/07 05:57:30;;;;;;;10.45;5.78;;;8.80;99.90;;;;;;4849743;28;20039;-57
2023/11/07 05:59:56;;;;;;;10.68;5.38;;;8.80;99.90;;;;;;4837768;28;22619;-62
2023/11/07 06:02:21;;;;;;;11.68;5.40;;;8.70;99.90;;;;;;4892597;28;20027;-55
2023/11/07 06:04:47;;;;;;;9.95;5.95;;;8.70;99.90;;;;;;4839646;28;20400;-62
2023/11/07 06:07:13;;;;;;;9.90;5.75;;;8.70;99.90;;;;;;4870796;28;20535;-59
2023/11/07 06:09:38;;;;;;;7.15;5.68;;;8.70;99.90;;;;;;4830965;28;20464;-59
2023/11/07 06:12:04;;;;;;;8.45;5.20;;;8.70;99.90;;;;;;4838663;28;20046;-59
2023/11/07 06:14:30;;;;;;;7.85;5.80;;;8.70;99.90;;;;;;4849525;28;20045;-62
2023/11/07 06:16:55;;;;;;;9.63;5.43;;;8.60;99.90;;;;;;4850880;28;20027;-59
2023/11/07 06:19:21;;;;;;;10.73;5.10;;;8.60;99.90;;;;;;4831343;28;21394;-59
2023/11/07 06:21:48;;;;;;;6.53;5.20;;;8.60;99.90;;;;;;4819089;28;20102;-60
2023/11/07 06:24:14;;;;;;;9.70;5.93;;;8.60;99.90;;;;;;4827266;28;20133;-59
2023/11/07 06:26:40;;;;;;;11.30;5.32;;;8.50;99.90;;;;;;4887018;28;20023;-58
2023/11/07 06:29:06;;;;;;;9.90;5.80;;;8.50;99.90;;;;;;4868730;28;22442;-60
2023/11/07 06:31:32;;;;;;;7.80;6.18;;;8.50;99.90;;;;;;4854143;28;20086;-60
2023/11/07 06:33:58;;;;;;;9.18;5.60;;;8.50;99.90;;;;;;4884621;28;20066;-64
2023/11/07 06:36:24;;;;;;;6.78;5.28;;;8.50;99.90;;;;;;4826394;28;20038;-60
2023/11/07 06:38:50;;;;;;;12.13;6.03;;;8.50;99.90;;;;;;4827411;28;21256;-60
2023/11/07 06:41:17;;;;;;;8.02;6.00;;;8.50;99.90;;;;;;4863641;28;20035;-58
2023/11/07 06:43:46;;;;;;;8.25;5.70;;;8.50;99.90;;;;;;4821720;28;20527;-62
2023/11/07 06:46:13;;;;;;;11.40;5.45;;;8.50;99.90;;;;;;4818158;28;20392;-60
2023/11/07 06:48:39;;;;;;;10.25;5.95;;;8.50;99.90;;;;;;4814967;28;20031;-59
2023/11/07 06:51:05;;;;;;;9.18;6.20;;;8.60;99.90;;;;;;4868031;28;20399;-60
2023/11/07 06:53:31;;;;;;;11.05;5.72;;;8.50;99.90;;;;;;4906681;28;20062;-64
2023/11/07 06:55:57;;;;;;;12.80;6.55;;;8.60;99.90;;;;;;4918763;28;20042;-59
2023/11/07 06:58:23;;;;;;;10.48;6.00;;;8.60;99.90;;;;;;4845789;28;20146;-60
2023/11/07 07:00:49;;;;;;;11.85;5.38;;;8.60;99.90;;;;;;4870236;28;20492;-59
2023/11/07 07:03:14;;;;;;;13.15;6.53;;;8.60;99.90;;;;;;4864292;28;20444;-61
2023/11/07 07:05:40;;;;;;;9.30;5.65;;;8.60;99.90;;;;;;4864366;28;20117;-63
2023/11/07 07:08:07;;;;;;;9.43;6.47;;;8.70;99.90;;;;;;4937780;28;20031;-61
2023/11/07 07:10:33;;;;;;;11.20;5.50;;;8.60;99.90;;;;;;4920909;28;20045;-59
2023/11/07 07:12:58;;;;;;;10.40;5.72;;;8.60;99.90;;;;;;4928506;28;20507;-64
2023/11/07 07:15:24;;;;;;;9.32;5.90;;;8.70;99.90;;;;;;4928950;28;20042;-62
2023/11/07 07:17:49;;;;;;;9.00;5.68;;;8.70;99.90;;;;;;4918066;28;20110;-62
2023/11/07 07:20:15;;;;;;;9.55;5.88;;;8.70;99.90;;;;;;4926064;28;20035;-60
2023/11/07 07:22:42;;;;;;;10.30;6.10;;;8.80;99.90;;;;;;4913946;28;20035;-62
2023/11/07 07:25:16;;;;;;;10.27;5.65;;;8.80;99.90;;;;;;4909020;28;20050;-62
2023/11/07 07:27:45;;;;;;;10.65;6.63;;;8.80;99.90;;;;;;4913963;28;20035;-61
2023/11/07 07:30:21;;;;;;;8.32;5.38;;;8.80;99.90;;;;;;4918423;28;20128;-59
2023/11/07 07:32:47;;;;;;;10.85;6.43;;;8.80;99.90;;;;;;4903698;28;20035;-62
2023/11/07 07:35:15;;;;;;;10.50;6.40;;;8.90;99.90;;;;;;4913553;28;20067;-58
2023/11/07 07:37:43;;;;;;;13.40;6.25;;;8.90;99.90;;;;;;4886076;28;20710;-62
2023/11/07 07:40:14;;;;;;;7.38;6.15;;;8.90;99.90;;;;;;4928058;28;20027;-62
2023/11/07 07:42:43;;;;;;;8.85;5.95;;;8.90;99.90;;;;;;4941061;28;20039;-60
2023/11/07 07:45:11;;;;;;;10.38;6.05;;;8.90;99.90;;;;;;4929311;28;20098;-61
2023/11/07 07:47:37;;;;;;;10.95;5.72;;;9.00;99.90;;;;;;4935863;28;20050;-62
2023/11/07 07:50:10;;;;;;;9.43;6.13;;;9.00;99.90;;;;;;4913521;28;20062;-59
2023/11/07 07:52:43;;;;;;;8.30;5.82;;;9.10;99.90;;;;;;4905082;28;20119;-62
2023/11/07 07:55:09;;;;;;;8.85;5.93;;;9.10;99.90;;;;;;4918949;28;20054;-61
2023/11/07 07:57:38;;;;;;;11.40;6.28;;;9.10;99.90;;;;;;4917943;28;20023;-61
2023/11/07 08:00:15;;;;;;;8.68;5.43;;;9.10;99.90;;;;;;4915055;28;21724;-60
2023/11/07 08:02:47;;;;;;;13.38;5.55;;;9.20;99.90;;;;;;4917128;28;20091;-58
2023/11/07 08:05:20;;;;;;;9.43;5.18;;;9.20;99.90;;;;;;4916905;28;20122;-60
2023/11/07 08:07:47;;;;;;;9.35;5.68;;;9.20;99.90;;;;;;4911890;28;20231;-61
2023/11/07 08:10:22;;;;;;;12.75;5.43;;;9.20;99.90;;;;;;4883590;28;20035;-60
2023/11/07 08:12:50;;;;;;;9.07;5.13;;;9.30;99.90;;;;;;4903340;28;22238;-59
2023/11/07 08:15:16;;;;;;;12.82;5.57;;;9.20;99.90;;;;;;4907024;28;20031;-60
2023/11/07 08:17:42;;;;;;;9.05;5.20;;;9.20;99.90;;;;;;4897313;28;20039;-57
2023/11/07 08:20:14;;;;;;;6.50;5.78;;;9.30;99.90;;;;;;4903639;28;20036;-61
2023/11/07 08:22:41;;;;;;;6.22;4.75;;;9.30;99.90;;;;;;4949528;28;20468;-58
2023/11/07 08:25:07;;;;;;;9.48;5.63;;;9.30;99.90;;;;;;4908950;28;20055;-59
2023/11/07 08:27:33;;;;;;;10.93;5.43;;;9.40;99.90;;;;;;4880892;28;20032;-60
2023/11/07 08:29:59;;;;;;;9.27;6.03;;;9.40;99.90;;;;;;4936334;28;20043;-59
2023/11/07 08:32:29;;;;;;;9.07;5.70;;;9.40;99.90;;;;;;4902626;28;20027;-61
2023/11/07 08:34:55;;;;;;;9.02;4.80;;;9.40;99.90;;;;;;4909204;28;20086;-59
2023/11/07 08:37:21;;;;;;;10.27;5.20;;;9.40;99.90;;;;;;4898003;22;20058;-79
2023/11/07 08:39:47;;;;;;;10.13;5.30;;;9.40;99.90;;;;;;4902850;28;21252;-79
2023/11/07 08:42:14;;;;;;;10.10;5.20;;;9.50;99.90;;;;;;4945593;28;20386;-77
2023/11/07 08:44:39;;;;;;;7.55;4.30;;;9.50;99.90;;;;;;4903352;28;20061;-80
2023/11/07 08:47:06;;;;;;;8.05;4.57;;;9.50;99.90;;;;;;4960050;28;20562;-77
2023/11/07 08:49:32;;;;;;;5.95;4.22;;;9.50;99.90;;;;;;4915093;28;20114;-77
2023/11/07 08:51:57;;;;;;;14.65;5.25;;;9.50;99.90;;;;;;4917590;28;20114;-79
2023/11/07 08:54:23;;;;;;;7.55;5.28;;;9.60;99.90;;;;;;4948591;28;20553;-78
2023/11/07 08:56:51;;;;;;;8.50;5.07;;;9.60;99.90;;;;;;4866412;28;20031;-78
2023/11/07 08:59:20;;;;;;;8.10;5.00;;;9.60;99.90;;;;;;4895613;28;21452;-80
2023/11/07 09:01:47;;;;;;;8.23;5.20;;;9.60;99.90;;;;;;4926070;28;20042;-78
2023/11/07 09:04:13;;;;;;;9.52;4.70;;;9.60;99.90;;;;;;4912198;28;20030;-79
2023/11/07 09:06:39;;;;;;;6.57;5.00;;;9.60;99.90;;;;;;4828822;28;20030;-79
2023/11/07 09:09:07;;;;;;;10.02;5.32;;;9.60;99.90;;;;;;4898828;28;21677;-77
2023/11/07 09:11:33;;;;;;;10.43;5.05;;;9.60;99.90;;;;;;4964605;28;20029;-79
2023/11/07 09:13:59;;;;;;;9.38;4.93;;;9.60;99.90;;;;;;4828394;28;20038;-78
2023/11/07 09:16:25;;;;;;;7.82;4.63;;;9.70;99.90;;;;;;4893921;28;20052;-78
2023/11/07 09:18:50;;;;;;;7.47;5.47;;;9.70;99.90;;;;;;4868106;28;22377;-78
2023/11/07 09:21:16;;;;;;;6.30;5.10;;;9.70;99.90;;;;;;4919215;28;20038;-78
2023/11/07 09:23:45;;;;;;;9.90;4.50;;;9.80;99.90;;;;;;4867477;28;20065;-80
2023/11/07 09:26:10;;;;;;;11.45;5.45;;;9.80;99.90;;;;;;4905149;28;20035;-77
2023/11/07 09:28:36;;;;;;;11.82;5.63;;;9.80;99.90;;;;;;4863453;28;20410;-79
2023/11/07 09:31:02;;;;;;;9.38;5.10;;;9.90;99.90;;;;;;4851844;28;20038;-77
2023/11/07 09:33:27;;;;;;;6.22;4.00;;;9.90;99.90;;;;;;4857755;28;20039;-79
2023/11/07 09:35:53;;;;;;;7.07;4.50;;;9.90;99.90;;;;;;4887109;28;20522;-79
2023/11/07 09:38:19;;;;;;;7.57;4.57;;;9.90;99.90;;;;;;4888713;28;21376;-78
2023/11/07 09:40:45;;;;;;;10.63;4.93;;;9.90;99.90;;;;;;4851116;28;20633;-79
2023/11/07 09:43:12;;;;;;;7.25;4.90;;;10.00;99.90;;;;;;4806006;28;20030;-79
2023/11/07 09:45:40;;;;;;;8.43;5.07;;;10.00;99.90;;;;;;4849278;28;20355;-77
2023/11/07 09:48:09;;;;;;;10.88;4.50;;;10.00;99.90;;;;;;4916284;28;21941;-77
2023/11/07 09:50:39;;;;;;;11.30;5.18;;;10.00;99.90;;;;;;4873458;28;20116;-78
2023/11/07 09:53:07;;;;;;;7.40;4.75;;;10.00;99.90;;;;;;4872398;28;20041;-78
2023/11/07 09:55:34;;;;;;;7.90;4.70;;;10.10;99.90;;;;;;4846964;28;20502;-77
2023/11/07 09:58:07;;;;;;;10.48;4.57;;;10.00;99.90;;;;;;4821891;28;20083;-79
2023/11/07 10:00:35;;;;;;;9.52;4.43;;;10.10;99.90;;;;;;4919186;28;20086;-77
2023/11/07 10:03:02;;;;;;;5.95;3.83;;;10.10;99.90;;;;;;4971401;28;20063;-78
2023/11/07 10:05:30;;;;;;;7.32;4.72;;;10.10;99.90;;;;;;4922436;28;20102;-79
2023/11/07 10:07:59;;;;;;;10.80;4.78;;;10.10;99.90;;;;;;4856767;28;20452;-79
2023/11/07 10:10:25;;;;;;;5.50;4.30;;;10.10;99.90;;;;;;4881495;28;20085;-79
2023/11/07 10:12:51;;;;;;;7.40;4.38;;;10.10;99.90;;;;;;4834313;28;21486;-78
2023/11/07 10:15:23;;;;;;;4.93;4.32;;;10.10;99.90;;;;;;4857557;28;20084;-78
2023/11/07 10:17:58;;;;;;;5.90;4.53;;;10.10;99.90;;;;;;4844926;28;20316;-77
2023/11/07 10:20:25;;;;;;;7.00;4.25;;;10.10;99.90;;;;;;4918148;28;20029;-80
2023/11/07 10:22:51;;;;;;;6.45;4.32;;;10.10;99.90;;;;;;4922472;28;20051;-79
2023/11/07 10:25:30;;;;;;;9.63;4.32;;;10.10;99.90;;;;;;4878530;28;20023;-79
2023/11/07 10:28:02;;;;;;;6.43;3.78;;;10.10;99.90;;;;;;4851553;28;20031;-80
2023/11/07 10:30:45;;;;;;;6.85;4.25;;;10.10;99.90;;;;;;4919714;28;20027;-80
2023/11/07 10:33:22;;;;;;;4.55;4.03;;;10.10;99.90;;;;;;4905484;28;20037;-79
2023/11/07 10:35:56;;;;;;;8.13;3.97;;;10.10;99.90;;;;;;4894000;28;20499;-78
2023/11/07 10:38:22;;;;;;;4.35;3.58;;;10.10;99.90;;;;;;4915785;28;21654;-78
2023/11/07 10:40:49;;;;;;;8.13;4.50;;;10.00;99.90;;;;;;4941324;28;20030;-79
2023/11/07 10:43:31;;;;;;;4.50;3.90;;;10.00;99.90;;;;;;4948471;28;20031;-78
2023/11/07 10:46:00;;;;;;;5.95;3.67;;;10.00;99.90;;;;;;4928075;28;20078;-79
2023/11/07 10:48:26;;;;;;;6.00;3.97;;;10.10;99.90;;;;;;4959290;28;20031;-79
2023/11/07 10:50:53;;;;;;;4.30;3.65;;;10.10;99.90;;;;;;4955467;28;20037;-83
2023/11/07 10:53:20;;;;;;;4.13;3.35;;;10.20;99.90;;;;;;4948365;28;20033;-83
2023/11/07 10:55:47;;;;;;;4.55;3.65;;;10.20;99.90;;;;;;4949765;28;21494;-83
2023/11/07 10:58:18;;;;;;;5.78;3.70;;;10.30;99.90;;;;;;4957250;28;20089;-83
2023/11/07 11:00:44;;;;;;;7.05;3.70;;;10.40;99.90;;;;;;4924959;28;20514;-83
2023/11/07 11:03:12;;;;;;;5.82;3.53;;;10.50;99.90;;;;;;4928352;28;20039;-82
2023/11/07 11:05:40;;;;;;;8.05;3.30;;;10.60;99.90;;;;;;4882707;28;20626;-84
2023/11/07 11:08:07;;;;;;;5.50;3.30;;;10.70;99.90;;;;;;4920855;28;20033;-83
2023/11/07 11:10:35;;;;;;;13.90;3.63;;;10.80;99.90;;;;;;4901570;28;20023;-82
2023/11/07 11:13:02;;;;;;;4.63;3.20;;;10.80;99.90;;;;;;4933806;28;21377;-84
2023/11/07 11:15:28;;;;;;;4.30;2.88;;;10.90;99.90;;;;;;4947923;28;20031;-83
2023/11/07 11:18:01;;;;;;;3.30;3.00;;;10.80;99.90;;;;;;4903479;28;20031;-83
2023/11/07 11:20:43;;;;;;;3.92;3.08;;;10.80;99.90;;;;;;4907629;28;20034;-84
2023/11/07 11:23:43;;;;;;;4.47;3.30;;;10.80;99.90;;;;;;4895573;28;20038;-84
2023/11/07 11:26:20;;;;;;;6.20;3.65;;;10.90;99.90;;;;;;4892899;28;20026;-84
2023/11/07 11:28:45;;;;;;;4.13;3.28;;;10.90;99.90;;;;;;4905057;28;20995;-83
2023/11/07 11:31:17;;;;;;;7.63;3.75;;;10.90;99.90;;;;;;4924113;28;20019;-84
2023/11/07 11:33:43;;;;;;;4.20;3.30;;;10.90;99.90;;;;;;4916576;28;20033;-82
2023/11/07 11:36:32;;;;;;;5.78;4.03;;;10.90;99.90;;;;;;4928765;28;20026;-84
2023/11/07 11:38:58;;;;;;;5.43;3.58;;;10.90;99.90;;;;;;4898257;28;20019;-82
2023/11/07 11:42:00;;;;;;;5.30;3.40;;;10.90;99.90;;;;;;4897673;28;20517;-82
2023/11/07 11:44:26;;;;;;;3.63;3.17;;;10.90;99.90;;;;;;4915630;28;20061;-85
2023/11/07 11:46:52;;;;;;;3.63;3.30;;;10.80;99.90;;;;;;4912230;28;21928;-83
2023/11/07 11:49:21;;;;;;;6.93;4.00;;;10.80;99.90;;;;;;4917107;28;20027;-84
2023/11/07 11:51:48;;;;;;;6.45;3.75;;;10.80;99.90;;;;;;4921886;28;20399;-85
2023/11/07 11:54:26;;;;;;;4.80;3.10;;;10.80;99.90;;;;;;4946195;28;20076;-85
2023/11/07 11:56:53;;;;;;;6.22;5.03;;;10.70;99.90;;;;;;4911303;28;20045;-86
2023/11/07 11:59:19;;;;;;;4.85;3.72;;;10.70;99.90;;;;;;4936805;28;20037;-86
2023/11/07 12:01:50;;;;;;;5.53;3.10;;;10.70;99.90;;;;;;4903424;28;21045;-83
2023/11/07 12:04:33;;;;;;;7.53;3.55;;;10.70;99.90;;;;;;4965522;28;20038;-84
2023/11/07 12:07:12;;;;;;;3.63;3.17;;;10.80;99.90;;;;;;4912070;28;20475;-83
2023/11/07 12:09:39;;;;;;;5.72;2.80;;;10.90;99.90;;;;;;4945832;28;20451;-83
2023/11/07 12:12:07;;;;;;;5.22;2.80;;;10.90;99.90;;;;;;4877995;28;20494;-83
2023/11/07 12:14:33;;;;;;;6.35;2.88;;;11.00;99.90;;;;;;4889624;28;20025;-83
2023/11/07 12:17:00;;;;;;;3.60;2.90;;;11.10;99.90;;;;;;4878803;28;20023;-84
2023/11/07 12:19:35;;;;;;;3.83;3.05;;;11.10;99.90;;;;;;4902020;28;20394;-84
2023/11/07 12:22:00;;;;;;;3.22;2.75;;;11.20;99.90;;;;;;4906664;28;21170;-84
2023/11/07 12:24:26;;;;;;;3.85;2.60;;;11.20;99.90;;;;;;4909913;28;20049;-83
2023/11/07 12:26:52;;;;;;;5.03;2.50;;;11.30;99.90;;;;;;4903108;28;20098;-86
2023/11/07 12:29:34;;;;;;;3.15;2.28;;;11.20;99.90;;;;;;4942716;28;20030;-85
2023/11/07 12:32:00;;;;;;;4.82;2.30;;;11.20;99.90;;;;;;4871781;28;20027;-84
2023/11/07 12:34:36;;;;;;;2.53;2.33;;;11.20;99.90;;;;;;4888590;28;20033;-84
2023/11/07 12:37:14;;;;;;;3.70;2.53;;;11.10;99.90;;;;;;4955989;28;20430;-85
2023/11/07 12:39:44;;;;;;;4.25;2.17;;;11.10;99.90;;;;;;4948788;28;20026;-83
2023/11/07 12:42:10;;;;;;;2.75;1.90;;;11.10;99.90;;;;;;4925942;28;20036;-85
2023/11/07 12:44:37;;;;;;;4.15;1.73;;;11.00;99.90;;;;;;4891226;28;20098;-85
2023/11/07 12:47:06;;;;;;;2.13;1.30;;;11.00;99.90;;;;;;4893692;28;21147;-85
2023/11/07 12:49:38;;;;;;;4.63;2.00;;;11.00;99.90;;;;;;4896524;28;20455;-84
2023/11/07 12:52:11;;;;;;;6.95;1.90;;;11.00;99.90;;;;;;4938396;28;22354;-83
2023/11/07 12:54:37;;;;;;;3.80;2.15;;;11.10;99.90;;;;;;4942556;28;20046;-84